Time;durP1;ratioP1;P1;durP2;ratioP2;P2;SDS_P1;SDS_P2;PMS_P1;PMS_P2;Temp;Humidity;BMP_temperature;BMP_pressure;BME280_temperature;BME280_humidity;BME280_pressure;Samples;Min_cycle;Max_cycle;Signal;HPM_P1;HPM_P2
2023/07/07 04:02:25;;;;;;;2.50;1.73;;;18.90;62.90;;;;;;5241072;23;20511;-75
2023/07/07 04:04:52;;;;;;;2.93;1.67;;;19.00;63.30;;;;;;4994060;28;20457;-75
2023/07/07 04:07:19;;;;;;;3.03;1.90;;;19.00;63.10;;;;;;4993981;28;20990;-75
2023/07/07 04:09:45;;;;;;;1.80;1.20;;;19.00;63.30;;;;;;4994200;28;20449;-75
2023/07/07 04:12:12;;;;;;;2.27;1.53;;;19.00;63.40;;;;;;5009241;28;20514;-75
2023/07/07 04:14:39;;;;;;;3.87;1.80;;;19.10;63.50;;;;;;5014434;28;20499;-75
2023/07/07 04:17:06;;;;;;;3.27;1.60;;;19.20;63.20;;;;;;5013740;28;20444;-75
2023/07/07 04:19:34;;;;;;;2.20;1.50;;;19.20;63.40;;;;;;5013738;28;20456;-75
2023/07/07 04:22:00;;;;;;;2.47;1.67;;;19.30;63.40;;;;;;5013590;28;20491;-75
2023/07/07 04:24:27;;;;;;;2.23;1.47;;;19.30;63.60;;;;;;5013659;28;20440;-75
2023/07/07 04:26:54;;;;;;;2.47;1.70;;;19.40;63.50;;;;;;5013785;28;20531;-75
2023/07/07 04:29:21;;;;;;;2.67;1.77;;;19.50;63.40;;;;;;5013647;28;20459;-75
2023/07/07 04:31:47;;;;;;;2.77;1.97;;;19.50;63.20;;;;;;5013499;28;20476;-75
2023/07/07 04:34:15;;;;;;;2.70;1.70;;;19.60;63.30;;;;;;5013542;28;20453;-75
2023/07/07 04:36:44;;;;;;;2.83;1.90;;;19.60;63.60;;;;;;5013554;28;20507;-75
2023/07/07 04:39:10;;;;;;;2.30;1.67;;;19.70;63.70;;;;;;5013183;28;20503;-75
2023/07/07 04:41:37;;;;;;;3.30;1.77;;;19.80;63.80;;;;;;5013483;28;20468;-75
2023/07/07 04:44:03;;;;;;;2.97;1.63;;;19.90;63.80;;;;;;5013504;28;20543;-75
2023/07/07 04:46:32;;;;;;;2.33;1.73;;;20.00;64.00;;;;;;5013402;28;20510;-74
2023/07/07 04:48:59;;;;;;;3.20;1.73;;;20.10;63.50;;;;;;5013366;28;20484;-75
2023/07/07 04:51:26;;;;;;;3.20;2.00;;;20.20;63.40;;;;;;5013397;28;20548;-75
2023/07/07 04:53:54;;;;;;;4.23;1.80;;;20.30;63.30;;;;;;5013360;28;20452;-75
2023/07/07 04:56:22;;;;;;;2.30;1.47;;;20.40;62.80;;;;;;5013359;28;20452;-75
2023/07/07 04:58:51;;;;;;;2.40;1.80;;;20.50;63.00;;;;;;5013019;28;20840;-75
2023/07/07 05:01:21;;;;;;;3.07;1.60;;;20.60;63.10;;;;;;5013041;28;20480;-75
2023/07/07 05:03:51;;;;;;;3.30;2.33;;;20.80;62.90;;;;;;5013203;28;20863;-75
2023/07/07 05:06:19;;;;;;;3.40;1.90;;;20.80;62.50;;;;;;5013304;28;20440;-75
2023/07/07 05:08:46;;;;;;;3.33;1.90;;;20.70;62.90;;;;;;5012801;28;21062;-75
2023/07/07 05:11:18;;;;;;;2.80;1.87;;;20.80;63.50;;;;;;5013123;28;20481;-75
2023/07/07 05:13:46;;;;;;;2.90;2.20;;;20.90;63.50;;;;;;5012945;28;20927;-76
2023/07/07 05:16:16;;;;;;;2.57;1.90;;;21.00;63.50;;;;;;5014829;28;20452;-76
2023/07/07 05:18:42;;;;;;;3.93;1.87;;;21.20;62.40;;;;;;5017210;28;20440;-76
2023/07/07 05:21:13;;;;;;;2.80;1.87;;;21.20;62.00;;;;;;5017352;28;20477;-74
2023/07/07 05:23:40;;;;;;;2.40;1.70;;;21.30;62.20;;;;;;5016952;28;20494;-74
2023/07/07 05:26:07;;;;;;;2.70;2.00;;;21.40;61.60;;;;;;5016605;28;20950;-75
2023/07/07 05:28:35;;;;;;;2.50;1.90;;;21.20;58.50;;;;;;5016817;28;20551;-75
2023/07/07 05:31:02;;;;;;;2.30;1.80;;;20.90;60.30;;;;;;5016759;28;20522;-75
2023/07/07 05:33:30;;;;;;;2.30;1.90;;;20.90;60.10;;;;;;5016708;28;20456;-75
2023/07/07 05:35:59;;;;;;;2.73;1.70;;;20.80;60.70;;;;;;5016656;28;20502;-75
2023/07/07 05:38:27;;;;;;;2.80;1.90;;;20.50;60.10;;;;;;5016251;28;20759;-75
2023/07/07 05:40:54;;;;;;;3.63;2.10;;;20.40;61.60;;;;;;5016582;28;20898;-75
2023/07/07 05:43:24;;;;;;;2.43;1.80;;;20.40;61.80;;;;;;5016770;28;20856;-75
2023/07/07 05:45:56;;;;;;;3.47;1.90;;;20.40;61.40;;;;;;5016338;28;20851;-74
2023/07/07 05:48:23;;;;;;;2.63;1.80;;;20.60;61.60;;;;;;5016376;28;20464;-75
2023/07/07 05:50:50;;;;;;;2.80;2.30;;;20.80;60.80;;;;;;5016325;28;20468;-75
2023/07/07 05:53:17;;;;;;;3.17;1.80;;;21.00;60.00;;;;;;5016341;28;20448;-75
2023/07/07 05:55:46;;;;;;;2.50;1.90;;;20.80;60.80;;;;;;5016260;28;20453;-75
2023/07/07 05:58:14;;;;;;;3.60;2.00;;;21.00;60.80;;;;;;5016271;28;20823;-75
2023/07/07 06:00:41;;;;;;;3.33;1.63;;;21.20;61.10;;;;;;5016011;28;20523;-75
2023/07/07 06:03:10;;;;;;;3.00;2.20;;;21.40;60.60;;;;;;5016253;28;20487;-74
2023/07/07 06:05:36;;;;;;;2.70;1.90;;;21.30;61.20;;;;;;5015957;28;20441;-75
2023/07/07 06:08:04;;;;;;;3.27;1.87;;;21.60;60.70;;;;;;5016048;28;20495;-75
2023/07/07 06:10:32;;;;;;;2.40;1.63;;;22.00;59.20;;;;;;5015974;28;20531;-74
2023/07/07 06:13:00;;;;;;;3.53;1.97;;;22.00;58.90;;;;;;5016013;28;20444;-75
2023/07/07 06:15:27;;;;;;;3.30;2.50;;;22.00;59.70;;;;;;5015907;28;20448;-75
2023/07/07 06:17:53;;;;;;;3.27;1.90;;;22.00;59.40;;;;;;5015866;28;20444;-75
2023/07/07 06:20:21;;;;;;;3.43;2.40;;;21.80;60.10;;;;;;5015860;28;20503;-75
2023/07/07 06:22:48;;;;;;;3.53;2.60;;;22.00;59.50;;;;;;5015717;28;20450;-75
2023/07/07 06:25:15;;;;;;;2.73;2.13;;;22.20;59.60;;;;;;5015694;28;20487;-76
2023/07/07 06:27:42;;;;;;;3.20;2.10;;;22.50;59.50;;;;;;5015350;28;20502;-75
2023/07/07 06:30:10;;;;;;;2.30;1.90;;;22.50;57.90;;;;;;5015746;28;20452;-75
2023/07/07 06:32:37;;;;;;;2.20;1.80;;;22.70;59.80;;;;;;5015512;28;20485;-75
2023/07/07 06:35:04;;;;;;;2.97;2.00;;;22.90;57.70;;;;;;5015557;28;20452;-75
2023/07/07 06:37:32;;;;;;;2.80;2.13;;;23.00;57.90;;;;;;5015451;28;20444;-75
2023/07/07 06:39:59;;;;;;;2.97;2.17;;;23.10;57.20;;;;;;5015086;28;20471;-75
2023/07/07 06:42:25;;;;;;;2.90;2.20;;;22.70;57.90;;;;;;5015355;28;20472;-76
2023/07/07 06:44:52;;;;;;;2.57;1.93;;;22.50;57.90;;;;;;5015543;28;20449;-76
2023/07/07 06:47:19;;;;;;;2.60;1.70;;;22.30;59.10;;;;;;5017710;28;20459;-76
2023/07/07 06:49:46;;;;;;;3.17;1.93;;;22.30;59.90;;;;;;5017684;28;20484;-76
2023/07/07 06:52:12;;;;;;;3.70;2.17;;;22.40;59.40;;;;;;5016884;28;20465;-75
2023/07/07 06:54:40;;;;;;;2.40;1.70;;;22.40;59.30;;;;;;5015197;28;20464;-75
2023/07/07 06:57:08;;;;;;;2.67;1.73;;;22.50;58.40;;;;;;5014920;28;20473;-76
2023/07/07 06:59:35;;;;;;;3.70;1.77;;;22.90;57.00;;;;;;5015117;28;20479;-75
2023/07/07 07:02:02;;;;;;;2.83;2.03;;;22.90;56.80;;;;;;5014879;28;20488;-76
2023/07/07 07:04:28;;;;;;;3.60;2.23;;;23.00;56.60;;;;;;5015108;28;20444;-75
2023/07/07 07:06:55;;;;;;;2.40;1.83;;;23.10;56.90;;;;;;5015092;28;20540;-75
2023/07/07 07:09:22;;;;;;;3.23;2.43;;;23.40;56.50;;;;;;5016447;28;20488;-76
2023/07/07 07:11:50;;;;;;;2.90;2.00;;;23.80;55.70;;;;;;5015859;28;20552;-75
2023/07/07 07:14:17;;;;;;;2.63;2.03;;;23.80;55.00;;;;;;5029790;28;20456;-77
2023/07/07 07:16:45;;;;;;;3.30;1.73;;;23.80;55.50;;;;;;5040075;28;20459;-77
2023/07/07 07:19:11;;;;;;;2.20;1.60;;;23.60;55.10;;;;;;5022535;28;20460;-73
2023/07/07 07:21:38;;;;;;;2.67;2.03;;;23.70;56.20;;;;;;5015532;28;20473;-76
2023/07/07 07:24:05;;;;;;;2.53;1.70;;;23.80;55.30;;;;;;5015544;28;20458;-76
2023/07/07 07:26:32;;;;;;;2.83;2.20;;;23.60;55.50;;;;;;5015264;28;20452;-76
2023/07/07 07:29:00;;;;;;;2.57;1.80;;;23.60;55.70;;;;;;5014527;28;20487;-76
2023/07/07 07:31:27;;;;;;;2.73;2.00;;;23.80;57.10;;;;;;5014530;28;20475;-76
2023/07/07 07:33:55;;;;;;;5.90;1.90;;;23.80;55.20;;;;;;5014475;28;20535;-76
2023/07/07 07:36:23;;;;;;;4.23;2.10;;;23.80;56.10;;;;;;5014437;28;20444;-76
2023/07/07 07:38:49;;;;;;;2.83;1.80;;;24.00;56.90;;;;;;5013765;28;20445;-75
2023/07/07 07:41:16;;;;;;;3.17;1.90;;;24.00;55.60;;;;;;5013850;28;20960;-75
2023/07/07 07:43:43;;;;;;;2.97;1.80;;;24.20;55.70;;;;;;5014210;28;20448;-75
2023/07/07 07:46:11;;;;;;;3.40;2.40;;;24.60;55.70;;;;;;5014342;28;20448;-76
2023/07/07 07:48:37;;;;;;;2.30;1.90;;;24.70;55.10;;;;;;5014242;28;20480;-76
2023/07/07 07:51:04;;;;;;;2.87;2.13;;;24.90;55.20;;;;;;5013982;28;20897;-75
2023/07/07 07:53:31;;;;;;;3.03;1.83;;;25.00;54.20;;;;;;5014708;28;20511;-76
2023/07/07 07:55:58;;;;;;;3.33;2.07;;;25.30;53.90;;;;;;5014392;28;20453;-76
2023/07/07 07:58:25;;;;;;;3.00;2.10;;;25.50;53.70;;;;;;5013825;28;20483;-76
2023/07/07 08:00:51;;;;;;;2.80;2.30;;;25.60;53.40;;;;;;5013496;28;20985;-75
2023/07/07 08:03:19;;;;;;;2.60;1.63;;;25.30;53.90;;;;;;5014069;28;20433;-76
2023/07/07 08:05:46;;;;;;;2.13;1.43;;;25.20;54.10;;;;;;5013989;28;20451;-75
2023/07/07 08:08:13;;;;;;;2.77;2.00;;;25.00;54.40;;;;;;5013949;28;20502;-75
2023/07/07 08:10:40;;;;;;;2.10;1.60;;;25.30;55.50;;;;;;5013834;28;20460;-74
2023/07/07 08:13:06;;;;;;;2.47;1.87;;;25.50;54.60;;;;;;5014008;28;20484;-75
2023/07/07 08:15:33;;;;;;;2.27;1.70;;;25.70;54.90;;;;;;5013792;28;20518;-77
2023/07/07 08:18:00;;;;;;;2.20;1.80;;;25.90;53.80;;;;;;5013535;28;20941;-75
2023/07/07 08:20:28;;;;;;;2.30;1.70;;;25.50;53.00;;;;;;5013608;28;20949;-76
2023/07/07 08:22:55;;;;;;;3.60;1.93;;;25.50;53.90;;;;;;5013740;28;20487;-76
2023/07/07 08:25:21;;;;;;;2.50;1.87;;;25.40;54.40;;;;;;5013682;28;20499;-76
2023/07/07 08:27:48;;;;;;;2.90;2.47;;;25.50;54.80;;;;;;5013650;28;20444;-75
2023/07/07 08:30:14;;;;;;;2.23;1.90;;;26.00;53.50;;;;;;5013519;28;20491;-76
2023/07/07 08:32:41;;;;;;;3.00;2.50;;;26.00;52.50;;;;;;5013599;28;20523;-75
2023/07/07 08:35:10;;;;;;;2.20;1.70;;;26.20;53.50;;;;;;5013637;28;20444;-75
2023/07/07 08:37:38;;;;;;;2.90;1.60;;;26.40;52.60;;;;;;5013857;28;20451;-76
2023/07/07 08:40:05;;;;;;;2.77;2.03;;;26.50;53.00;;;;;;5013808;28;20444;-75
2023/07/07 08:42:35;;;;;;;3.33;2.03;;;26.40;52.80;;;;;;5013442;28;20473;-75
2023/07/07 08:45:06;;;;;;;2.83;2.50;;;26.30;52.90;;;;;;5013431;28;20452;-76
2023/07/07 08:47:45;;;;;;;3.13;2.60;;;26.50;52.40;;;;;;5014303;28;20432;-76
2023/07/07 08:50:18;;;;;;;2.53;1.83;;;26.80;51.30;;;;;;5013391;28;20465;-76
2023/07/07 08:52:54;;;;;;;3.17;2.23;;;26.70;53.20;;;;;;5017395;28;20467;-76
2023/07/07 08:55:39;;;;;;;3.10;2.23;;;26.90;51.50;;;;;;5017404;28;20440;-76
2023/07/07 08:58:14;;;;;;;4.80;2.70;;;27.10;50.10;;;;;;5017047;28;20910;-76
2023/07/07 09:00:51;;;;;;;3.00;1.73;;;27.00;50.20;;;;;;5017108;28;20436;-76
2023/07/07 09:03:31;;;;;;;5.83;2.33;;;27.00;49.80;;;;;;5017539;28;20441;-77
2023/07/07 09:06:08;;;;;;;2.60;2.03;;;26.80;49.80;;;;;;5017415;28;20440;-76
2023/07/07 09:08:45;;;;;;;3.30;2.50;;;26.70;49.20;;;;;;5017046;28;20845;-76
2023/07/07 09:11:21;;;;;;;2.60;2.30;;;26.80;50.00;;;;;;5016980;28;20468;-76
2023/07/07 09:13:50;;;;;;;5.70;2.60;;;26.80;50.20;;;;;;5017066;28;20482;-75
2023/07/07 09:16:22;;;;;;;3.97;2.70;;;27.10;48.50;;;;;;5016997;28;20448;-76
2023/07/07 09:18:53;;;;;;;2.60;2.40;;;27.20;48.00;;;;;;5016985;28;20429;-76
2023/07/07 09:21:29;;;;;;;3.87;2.80;;;27.30;47.90;;;;;;5016529;28;20981;-75
2023/07/07 09:24:03;;;;;;;2.63;2.27;;;27.70;48.10;;;;;;5016888;28;20436;-76
2023/07/07 09:26:33;;;;;;;2.70;2.20;;;27.70;45.50;;;;;;5016816;28;20432;-76
2023/07/07 09:29:04;;;;;;;2.33;1.97;;;27.50;48.90;;;;;;5016709;28;20472;-76
2023/07/07 09:31:41;;;;;;;3.10;2.50;;;27.70;49.10;;;;;;5017446;28;20468;-76
2023/07/07 09:34:10;;;;;;;2.73;2.30;;;27.70;48.50;;;;;;5016901;28;20992;-76
2023/07/07 09:36:42;;;;;;;3.63;2.87;;;27.70;45.10;;;;;;5016872;28;20448;-77
2023/07/07 09:39:32;;;;;;;3.30;2.77;;;27.80;43.10;;;;;;5016724;28;20436;-76
2023/07/07 09:42:11;;;;;;;3.00;2.57;;;27.80;44.90;;;;;;5016206;28;20472;-77
2023/07/07 09:44:53;;;;;;;3.10;2.77;;;27.90;46.50;;;;;;5016519;28;20433;-77
2023/07/07 09:47:32;;;;;;;2.50;2.10;;;27.90;44.00;;;;;;5016431;28;20432;-77
2023/07/07 09:50:04;;;;;;;3.90;3.50;;;27.90;44.90;;;;;;5016394;28;20476;-77
2023/07/07 09:52:39;;;;;;;3.10;2.60;;;28.00;43.70;;;;;;5015877;28;20853;-76
2023/07/07 09:55:15;;;;;;;3.67;2.80;;;28.20;45.10;;;;;;5015983;28;20931;-76
2023/07/07 09:57:45;;;;;;;2.63;2.37;;;28.30;45.80;;;;;;5015997;28;20840;-76
2023/07/07 10:00:17;;;;;;;5.17;3.00;;;28.10;43.50;;;;;;5016223;28;20452;-77
2023/07/07 10:02:45;;;;;;;3.23;2.93;;;28.10;44.60;;;;;;5015120;28;20487;-77
2023/07/07 10:05:14;;;;;;;3.20;2.80;;;28.10;43.20;;;;;;5016130;28;20539;-77
2023/07/07 10:07:41;;;;;;;2.87;2.60;;;28.60;44.20;;;;;;5016015;28;20444;-76
2023/07/07 10:10:13;;;;;;;3.47;2.70;;;28.40;43.30;;;;;;5015928;28;20488;-76
2023/07/07 10:12:40;;;;;;;4.17;3.77;;;28.10;43.00;;;;;;5015871;28;20473;-75
2023/07/07 10:15:30;;;;;;;5.30;3.23;;;28.10;43.20;;;;;;5017151;28;20510;-76
2023/07/07 10:18:03;;;;;;;3.17;2.73;;;28.20;44.00;;;;;;5015560;28;20918;-76
2023/07/07 10:20:31;;;;;;;3.63;2.80;;;28.30;42.80;;;;;;5015775;28;20432;-78
2023/07/07 10:22:58;;;;;;;3.33;3.03;;;28.50;43.10;;;;;;5015821;28;20454;-77
2023/07/07 10:25:27;;;;;;;4.30;2.90;;;28.70;42.80;;;;;;5016592;28;20448;-77
2023/07/07 10:27:55;;;;;;;3.50;3.20;;;29.00;40.60;;;;;;5016315;28;20875;-76
2023/07/07 10:30:22;;;;;;;3.70;3.40;;;29.00;40.70;;;;;;5015546;28;20594;-77
2023/07/07 10:32:48;;;;;;;3.90;3.50;;;28.90;41.60;;;;;;5015512;28;20503;-76
2023/07/07 10:35:19;;;;;;;3.30;3.00;;;29.20;41.90;;;;;;5015642;28;20452;-76
2023/07/07 10:37:46;;;;;;;3.20;2.57;;;29.20;41.60;;;;;;5015545;28;20441;-77
2023/07/07 10:40:21;;;;;;;3.10;2.70;;;29.30;42.00;;;;;;5015499;28;20472;-77
2023/07/07 10:42:52;;;;;;;3.37;2.63;;;29.00;42.60;;;;;;5015444;28;20490;-75
2023/07/07 10:45:19;;;;;;;3.40;3.10;;;29.00;42.80;;;;;;5015427;28;20852;-76
2023/07/07 10:47:45;;;;;;;4.00;3.17;;;28.90;43.40;;;;;;5015289;28;20448;-77
2023/07/07 10:50:15;;;;;;;3.03;2.60;;;28.80;45.40;;;;;;5015144;28;20511;-77
2023/07/07 10:52:55;;;;;;;3.90;3.10;;;29.10;45.10;;;;;;5015184;28;20475;-77
2023/07/07 10:55:28;;;;;;;4.23;3.10;;;29.50;44.20;;;;;;5015241;28;20528;-77
2023/07/07 10:58:09;;;;;;;4.17;3.50;;;29.50;43.50;;;;;;5015151;28;20437;-77
2023/07/07 11:00:45;;;;;;;3.63;3.33;;;29.80;43.00;;;;;;5014575;28;20841;-77
2023/07/07 11:03:39;;;;;;;4.70;2.80;;;29.80;42.80;;;;;;5015060;28;20487;-77
2023/07/07 11:06:16;;;;;;;3.83;3.43;;;29.80;43.30;;;;;;5015085;28;20433;-76
2023/07/07 11:08:50;;;;;;;3.40;3.10;;;29.50;41.50;;;;;;5014965;28;20437;-76
2023/07/07 11:11:28;;;;;;;3.93;3.27;;;29.10;41.60;;;;;;5014812;28;20484;-75
2023/07/07 11:14:20;;;;;;;3.90;3.50;;;29.20;43.10;;;;;;5013981;28;20424;-75
2023/07/07 11:16:59;;;;;;;3.40;3.10;;;29.50;41.90;;;;;;5011721;28;20790;-75
2023/07/07 11:19:39;;;;;;;3.53;3.23;;;29.70;40.30;;;;;;5014730;28;20429;-76
2023/07/07 11:22:19;;;;;;;3.80;3.50;;;30.00;41.10;;;;;;5014689;28;20479;-75
2023/07/07 11:24:51;;;;;;;3.40;3.10;;;29.90;39.50;;;;;;5014636;28;20436;-76
2023/07/07 11:27:54;;;;;;;3.63;3.33;;;30.20;39.90;;;;;;5014818;28;20491;-75
2023/07/07 11:30:32;;;;;;;3.77;3.40;;;30.50;39.00;;;;;;5001695;28;20480;-76
2023/07/07 11:33:12;;;;;;;3.80;3.40;;;30.60;38.50;;;;;;5014778;28;20429;-76
2023/07/07 11:35:51;;;;;;;4.13;3.17;;;30.80;39.20;;;;;;5014763;28;20785;-76
2023/07/07 11:38:39;;;;;;;3.50;3.20;;;30.70;39.00;;;;;;5014407;28;20467;-76
2023/07/07 11:41:14;;;;;;;3.30;3.00;;;30.40;39.70;;;;;;5014261;28;20460;-76
2023/07/07 11:43:59;;;;;;;3.17;2.83;;;30.60;38.80;;;;;;5014824;28;20519;-76
2023/07/07 11:46:49;;;;;;;3.50;3.20;;;30.30;38.40;;;;;;5014596;28;20937;-76
2023/07/07 11:49:29;;;;;;;3.30;3.00;;;30.40;38.80;;;;;;5014532;28;20448;-77
2023/07/07 11:52:06;;;;;;;4.23;3.83;;;30.60;39.40;;;;;;5015100;28;20519;-76
2023/07/07 11:55:00;;;;;;;3.40;3.10;;;30.50;37.40;;;;;;5014286;28;20925;-77
2023/07/07 11:57:45;;;;;;;3.77;3.47;;;30.50;38.80;;;;;;5011442;28;20866;-76
2023/07/07 12:00:28;;;;;;;4.60;3.43;;;30.40;38.40;;;;;;5014675;28;20443;-76
2023/07/07 12:03:31;;;;;;;3.80;3.27;;;30.60;37.90;;;;;;5013854;28;20815;-76
2023/07/07 12:06:01;;;;;;;3.80;3.40;;;30.80;37.50;;;;;;5014370;28;20429;-76
2023/07/07 12:08:37;;;;;;;4.10;3.70;;;31.00;37.20;;;;;;5014121;28;20436;-76
2023/07/07 12:11:07;;;;;;;3.93;3.17;;;31.10;37.20;;;;;;5014093;28;20904;-76
2023/07/07 12:13:39;;;;;;;3.93;3.63;;;30.90;36.70;;;;;;5014083;28;20498;-76
2023/07/07 12:16:15;;;;;;;3.50;3.20;;;30.80;36.80;;;;;;5013994;28;20437;-76
2023/07/07 12:18:47;;;;;;;3.40;3.07;;;30.70;37.10;;;;;;5014187;28;20490;-76
2023/07/07 12:21:16;;;;;;;3.67;3.33;;;30.50;37.40;;;;;;5013897;28;20464;-76
2023/07/07 12:23:53;;;;;;;3.70;3.33;;;30.40;37.30;;;;;;5013867;28;20449;-76
2023/07/07 12:26:26;;;;;;;3.50;2.90;;;30.60;37.40;;;;;;5013213;28;20432;-76
2023/07/07 12:28:56;;;;;;;4.40;4.00;;;30.60;37.60;;;;;;5013621;28;20439;-76
2023/07/07 12:31:25;;;;;;;4.17;3.60;;;30.70;37.90;;;;;;5013118;28;21029;-76
2023/07/07 12:33:53;;;;;;;3.40;3.10;;;30.80;37.50;;;;;;5013707;28;20507;-75
2023/07/07 12:36:22;;;;;;;3.23;2.93;;;30.80;37.10;;;;;;5013203;28;20452;-76
2023/07/07 12:38:50;;;;;;;3.23;2.93;;;30.70;36.60;;;;;;5013478;28;20452;-75
2023/07/07 12:41:21;;;;;;;3.40;3.10;;;30.70;37.20;;;;;;5013383;28;20817;-75
2023/07/07 12:43:52;;;;;;;3.50;3.10;;;30.90;38.80;;;;;;5013456;28;20494;-77
2023/07/07 12:46:24;;;;;;;3.57;3.20;;;30.70;36.60;;;;;;5013152;28;20861;-77
2023/07/07 12:48:53;;;;;;;3.97;3.50;;;31.00;38.20;;;;;;5013407;28;20447;-77
2023/07/07 12:51:20;;;;;;;3.87;3.27;;;31.10;35.60;;;;;;5013244;28;20575;-77
2023/07/07 12:53:49;;;;;;;3.93;3.60;;;31.00;36.90;;;;;;5012945;28;20448;-74
2023/07/07 12:56:19;;;;;;;4.03;3.63;;;31.30;38.50;;;;;;5013333;28;20483;-75
2023/07/07 12:58:48;;;;;;;4.20;3.80;;;31.70;37.70;;;;;;5013044;28;20949;-76
2023/07/07 13:01:42;;;;;;;3.20;2.90;;;32.10;35.90;;;;;;5013189;28;20516;-74
2023/07/07 13:04:17;;;;;;;2.90;2.60;;;32.40;35.40;;;;;;4967026;28;20507;-74
2023/07/07 13:07:04;;;;;;;3.40;3.10;;;32.40;34.30;;;;;;5013324;28;20432;-75
2023/07/07 13:09:47;;;;;;;3.13;2.83;;;31.70;33.70;;;;;;5010540;28;20471;-73
2023/07/07 13:12:56;;;;;;;3.30;3.00;;;31.40;35.40;;;;;;5013216;28;20471;-73
2023/07/07 13:15:26;;;;;;;3.77;3.40;;;31.50;35.00;;;;;;5012918;28;20914;-71
2023/07/07 13:17:55;;;;;;;4.67;3.13;;;31.40;34.60;;;;;;5013068;28;20456;-71
2023/07/07 13:20:25;;;;;;;3.40;3.10;;;31.50;34.10;;;;;;5013074;28;20480;-73
2023/07/07 13:22:56;;;;;;;3.47;3.10;;;31.60;33.40;;;;;;5013872;28;20455;-72
2023/07/07 13:25:25;;;;;;;3.40;3.10;;;31.70;32.60;;;;;;5012881;28;20971;-71
2023/07/07 13:27:53;;;;;;;3.80;2.87;;;31.70;33.50;;;;;;5013081;28;20805;-72
2023/07/07 13:30:25;;;;;;;3.50;3.20;;;31.80;35.30;;;;;;5013089;28;20516;-72
2023/07/07 13:32:52;;;;;;;3.67;3.07;;;31.90;34.70;;;;;;5013134;28;20491;-72
2023/07/07 13:35:19;;;;;;;2.90;2.60;;;31.90;32.90;;;;;;5012674;28;20852;-72
2023/07/07 13:37:47;;;;;;;2.93;2.57;;;32.30;34.50;;;;;;5015384;28;20955;-73
2023/07/07 13:40:16;;;;;;;2.80;2.60;;;32.80;34.50;;;;;;5016579;28;20448;-72
2023/07/07 13:42:47;;;;;;;3.80;3.07;;;33.10;33.90;;;;;;5016265;28;20854;-72
2023/07/07 13:45:18;;;;;;;3.30;3.00;;;32.90;34.20;;;;;;5016656;28;20442;-72
2023/07/07 13:47:47;;;;;;;3.93;2.70;;;32.80;34.20;;;;;;5017054;28;20448;-73
2023/07/07 13:50:16;;;;;;;3.20;2.57;;;32.50;34.60;;;;;;5016513;28;20479;-73
2023/07/07 13:52:47;;;;;;;3.60;3.07;;;32.20;34.70;;;;;;5016559;28;20464;-73
2023/07/07 13:55:15;;;;;;;3.77;2.90;;;32.30;34.10;;;;;;5016698;28;20440;-74
2023/07/07 13:57:43;;;;;;;3.67;3.37;;;32.40;34.00;;;;;;5016550;28;20452;-73
2023/07/07 14:00:18;;;;;;;2.77;2.47;;;32.10;33.90;;;;;;5016464;28;20472;-73
2023/07/07 14:02:45;;;;;;;2.40;2.17;;;32.00;34.60;;;;;;5015948;28;20529;-73
2023/07/07 14:05:16;;;;;;;3.40;3.00;;;31.80;33.80;;;;;;5016108;28;20514;-73
2023/07/07 14:07:42;;;;;;;3.83;3.53;;;31.80;34.00;;;;;;5016095;28;20444;-74
2023/07/07 14:10:28;;;;;;;3.57;2.97;;;31.70;33.70;;;;;;5015992;28;20498;-73
2023/07/07 14:12:55;;;;;;;3.30;3.00;;;31.90;34.20;;;;;;5016026;28;20433;-73
2023/07/07 14:15:31;;;;;;;2.53;2.33;;;31.90;34.20;;;;;;5015967;28;20450;-70
2023/07/07 14:18:02;;;;;;;4.80;2.80;;;31.90;33.80;;;;;;5015962;28;20802;-73
2023/07/07 14:20:34;;;;;;;4.10;3.27;;;31.90;34.80;;;;;;5015609;28;21014;-74
2023/07/07 14:23:00;;;;;;;4.43;3.30;;;31.90;34.30;;;;;;5015845;28;20439;-74
2023/07/07 14:25:28;;;;;;;3.10;2.80;;;32.20;35.20;;;;;;5016076;28;20444;-73
2023/07/07 14:27:57;;;;;;;3.00;2.70;;;32.50;34.10;;;;;;5015678;28;20457;-72
2023/07/07 14:30:25;;;;;;;3.03;2.73;;;32.90;34.30;;;;;;5015568;28;20492;-74
2023/07/07 14:32:55;;;;;;;3.03;2.73;;;33.20;32.70;;;;;;5015576;28;20452;-74
2023/07/07 14:35:25;;;;;;;3.00;2.57;;;33.00;32.10;;;;;;5016800;28;20448;-74
2023/07/07 14:37:55;;;;;;;2.60;2.40;;;33.00;31.60;;;;;;5015584;28;20538;-74
2023/07/07 14:40:30;;;;;;;3.13;2.63;;;33.30;32.30;;;;;;5015544;28;20452;-73
2023/07/07 14:42:59;;;;;;;3.10;2.80;;;33.40;32.70;;;;;;5015713;28;20487;-73
2023/07/07 14:45:28;;;;;;;4.60;2.70;;;33.70;32.80;;;;;;5015403;28;20452;-73
2023/07/07 14:47:55;;;;;;;4.10;2.97;;;33.80;31.90;;;;;;5015274;28;20454;-73
2023/07/07 14:50:22;;;;;;;3.93;2.97;;;33.60;32.90;;;;;;5015170;28;20542;-75
2023/07/07 14:52:53;;;;;;;3.97;2.90;;;33.70;33.70;;;;;;5015342;28;20448;-73
2023/07/07 14:55:22;;;;;;;3.10;2.77;;;33.80;32.30;;;;;;5015306;28;20484;-72
2023/07/07 14:57:57;;;;;;;3.33;2.77;;;33.50;32.40;;;;;;5015728;28;20452;-72
2023/07/07 15:00:46;;;;;;;3.33;2.70;;;33.60;31.40;;;;;;5015052;28;20436;-74
2023/07/07 15:03:30;;;;;;;3.90;2.63;;;33.10;31.30;;;;;;5015674;28;20848;-74
2023/07/07 15:06:13;;;;;;;3.20;2.90;;;33.10;31.70;;;;;;5014985;28;20495;-73
2023/07/07 15:08:45;;;;;;;3.83;2.63;;;33.20;31.70;;;;;;5015428;28;20838;-72
2023/07/07 15:11:13;;;;;;;3.00;2.60;;;33.00;32.20;;;;;;5015026;28;20483;-73
2023/07/07 15:13:42;;;;;;;3.03;2.50;;;33.00;32.10;;;;;;5014921;28;20448;-72
2023/07/07 15:16:16;;;;;;;2.50;2.30;;;33.30;32.90;;;;;;5014750;28;20443;-72
2023/07/07 15:18:43;;;;;;;3.20;2.90;;;33.00;32.20;;;;;;5014798;28;20440;-72
2023/07/07 15:21:19;;;;;;;3.10;2.80;;;32.80;33.10;;;;;;5014730;28;20468;-73
2023/07/07 15:23:45;;;;;;;2.53;2.33;;;32.90;32.10;;;;;;5014774;28;20436;-73
2023/07/07 15:26:20;;;;;;;3.00;2.73;;;32.90;32.80;;;;;;5014781;28;20444;-73
2023/07/07 15:28:48;;;;;;;3.43;2.90;;;32.60;31.90;;;;;;5014642;28;20436;-72
2023/07/07 15:31:17;;;;;;;3.10;2.80;;;32.30;33.10;;;;;;5014383;28;20491;-73
2023/07/07 15:33:44;;;;;;;4.20;2.20;;;32.10;32.90;;;;;;5014535;28;20453;-73
2023/07/07 15:36:11;;;;;;;3.73;2.60;;;32.10;33.40;;;;;;5014468;28;20790;-72
2023/07/07 15:39:05;;;;;;;3.20;2.37;;;32.10;33.70;;;;;;5014528;28;20503;-73
2023/07/07 15:41:32;;;;;;;4.77;2.60;;;32.30;33.90;;;;;;4968067;28;20567;-74
2023/07/07 15:44:00;;;;;;;2.90;2.60;;;32.60;33.30;;;;;;5014321;28;20452;-74
2023/07/07 15:46:31;;;;;;;2.67;2.30;;;32.80;32.80;;;;;;5014220;28;20451;-74
2023/07/07 15:48:58;;;;;;;3.50;2.80;;;32.80;32.80;;;;;;5013825;28;20937;-73
2023/07/07 15:51:35;;;;;;;3.47;2.50;;;32.70;33.40;;;;;;5013739;28;20511;-72
2023/07/07 15:54:05;;;;;;;3.00;2.20;;;32.70;33.20;;;;;;5014191;28;20441;-72
2023/07/07 15:56:34;;;;;;;3.10;2.60;;;32.30;33.00;;;;;;5014242;28;20484;-73
2023/07/07 15:59:03;;;;;;;3.33;3.00;;;31.90;32.80;;;;;;5013573;28;20459;-73
2023/07/07 16:01:30;;;;;;;3.33;2.80;;;31.80;33.40;;;;;;5013603;28;20488;-72
2023/07/07 16:03:57;;;;;;;3.43;2.97;;;31.80;33.60;;;;;;5013949;28;20460;-73
2023/07/07 16:06:24;;;;;;;3.13;2.77;;;31.70;33.60;;;;;;5013897;28;20865;-73
2023/07/07 16:08:51;;;;;;;4.40;2.50;;;31.60;33.80;;;;;;5013860;28;20484;-73
2023/07/07 16:11:19;;;;;;;2.50;1.93;;;31.40;34.10;;;;;;5013763;28;20904;-73
2023/07/07 16:13:48;;;;;;;2.60;2.37;;;31.40;34.60;;;;;;5014040;28;20452;-73
2023/07/07 16:16:19;;;;;;;3.10;2.80;;;31.40;34.60;;;;;;5019906;23;20500;-71
2023/07/07 16:18:46;;;;;;;3.00;2.70;;;31.30;33.90;;;;;;4994174;28;20491;-71
2023/07/07 16:21:18;;;;;;;3.20;2.33;;;31.30;33.60;;;;;;4994222;28;20480;-73
2023/07/07 16:23:45;;;;;;;2.90;2.40;;;31.10;34.10;;;;;;4994099;28;20434;-73
2023/07/07 16:26:14;;;;;;;3.00;2.70;;;31.20;34.30;;;;;;5009592;28;20883;-73
2023/07/07 16:28:41;;;;;;;2.83;2.47;;;31.40;34.10;;;;;;5013586;28;20456;-73
2023/07/07 16:31:10;;;;;;;2.57;2.03;;;31.40;34.00;;;;;;5013191;28;20476;-73
2023/07/07 16:33:39;;;;;;;3.33;3.00;;;31.50;34.30;;;;;;5013487;28;20473;-74
2023/07/07 16:36:15;;;;;;;3.10;2.50;;;31.40;33.60;;;;;;5013639;28;20468;-73
2023/07/07 16:38:43;;;;;;;3.17;2.30;;;31.50;34.50;;;;;;5013154;28;20530;-73
2023/07/07 16:41:15;;;;;;;3.10;2.30;;;31.30;33.90;;;;;;5013433;28;20502;-73
2023/07/07 16:43:42;;;;;;;3.03;2.63;;;31.20;34.20;;;;;;5013469;28;20444;-73
2023/07/07 16:46:10;;;;;;;3.37;2.80;;;31.10;33.90;;;;;;5013306;28;20887;-73
2023/07/07 16:48:38;;;;;;;3.10;2.60;;;31.20;33.70;;;;;;5013417;28;20454;-73
2023/07/07 16:51:05;;;;;;;3.80;2.60;;;31.10;34.10;;;;;;5012990;28;20802;-73
2023/07/07 16:53:32;;;;;;;3.30;2.40;;;31.10;34.40;;;;;;5013279;28;20526;-73
2023/07/07 16:56:00;;;;;;;3.03;2.53;;;31.10;34.00;;;;;;5013284;28;20475;-72
2023/07/07 16:58:26;;;;;;;2.73;2.50;;;31.20;34.30;;;;;;5013308;28;20448;-75
2023/07/07 17:00:53;;;;;;;3.30;2.70;;;31.40;34.20;;;;;;5013323;28;20480;-74
2023/07/07 17:03:20;;;;;;;2.70;2.37;;;31.20;34.20;;;;;;5012998;28;21008;-75
2023/07/07 17:05:48;;;;;;;3.50;2.40;;;31.20;34.10;;;;;;5013255;28;20526;-75
2023/07/07 17:08:14;;;;;;;2.97;2.30;;;31.10;34.30;;;;;;5013292;28;20449;-75